Time;durP1;ratioP1;P1;durP2;ratioP2;P2;SDS_P1;SDS_P2;PMS_P1;PMS_P2;Temp;Humidity;BMP_temperature;BMP_pressure;BME280_temperature;BME280_humidity;BME280_pressure;Samples;Min_cycle;Max_cycle;Signal;HPM_P1;HPM_P2
2022/02/11 00:01:42;;;;;;;11.40;3.85;;;;;;;4.56;92.00;148808.41;1744071;80;21528;-59
2022/02/11 00:09:09;;;;;;;10.58;4.03;;;;;;;4.52;92.79;148799.34;1789738;79;21166;-58
2022/02/11 00:11:38;;;;;;;9.08;3.47;;;;;;;4.54;93.10;148803.23;1780981;78;21025;-60
2022/02/11 00:14:07;;;;;;;11.10;3.75;;;;;;;4.55;93.27;148807.13;1780523;79;20937;-61
2022/02/11 00:16:36;;;;;;;9.25;4.08;;;;;;;4.56;93.34;148809.72;1772678;79;21045;-59
2022/02/11 00:19:03;;;;;;;11.90;3.90;;;;;;;4.56;93.42;148809.72;1769313;79;21053;-59
2022/02/11 00:21:30;;;;;;;5.87;3.02;;;;;;;4.56;93.42;148809.72;1787683;79;21131;-59
2022/02/11 00:23:57;;;;;;;8.63;3.52;;;;;;;4.55;93.73;148807.13;1795918;79;20965;-59
2022/02/11 00:26:34;;;;;;;9.33;3.90;;;;;;;4.53;93.73;148801.97;1781624;79;21084;-60
2022/02/11 00:31:58;;;;;;;10.93;3.22;;;;;;;4.48;94.09;148789.02;1782191;79;21559;-68
2022/02/11 00:34:14;;;;;;;10.03;3.37;;;;;;;4.45;94.27;148781.27;1791448;79;21695;-67
2022/02/11 00:36:55;;;;;;;13.38;4.03;;;;;;;4.42;94.59;148773.53;1783467;79;21616;-68
2022/02/11 00:53:18;;;;;;;10.13;3.92;;;;;;;4.37;95.35;148760.62;1780837;79;21120;-68
2022/02/11 01:05:52;;;;;;;10.95;3.67;;;;;;;4.23;96.27;148727.03;1741186;79;21574;-59
2022/02/11 01:08:19;;;;;;;9.23;4.08;;;;;;;4.21;96.43;148720.59;1788441;79;21056;-66
2022/02/11 01:10:46;;;;;;;11.53;3.98;;;;;;;4.19;96.45;148716.70;1782828;79;21016;-58
2022/02/11 01:13:14;;;;;;;8.03;4.03;;;;;;;4.15;96.40;148707.66;1781925;79;21092;-68
2022/02/11 01:15:46;;;;;;;11.48;4.00;;;;;;;4.11;96.43;148696.06;1786479;78;20998;-67
2022/02/11 01:18:12;;;;;;;10.18;4.62;;;;;;;4.08;96.51;148688.27;1798348;78;21335;-67
2022/02/11 01:20:50;;;;;;;13.48;4.40;;;;;;;4.05;96.68;148680.53;1785764;79;21002;-67
2022/02/11 01:23:25;;;;;;;8.98;3.72;;;;;;;4.03;96.73;148675.37;1805874;79;21501;-67
2022/02/11 01:28:49;;;;;;;6.45;3.00;;;;;;;3.99;96.84;148667.63;1782575;79;21130;-60
2022/02/11 01:55:06;;;;;;;12.07;4.53;;;;;;;3.98;96.93;148665.05;1749566;80;21494;-66
2022/02/11 02:06:00;;;;;;;12.98;4.92;;;;;;;4.01;96.65;148672.78;1749101;80;21036;-68
2022/02/11 02:11:28;;;;;;;10.63;4.42;;;;;;;3.98;96.69;148665.05;1746013;80;21605;-68
2022/02/11 02:22:20;;;;;;;11.93;3.80;;;;;;;3.99;96.97;148666.36;1738884;80;21545;-68
2022/02/11 02:59:19;;;;;;;9.55;4.67;;;;;;;3.91;97.53;148646.98;1748731;80;21143;-67
2022/02/11 03:15:43;;;;;;;;;;;;;;;3.77;97.93;148610.81;1741705;80;21483;-67
2022/02/11 04:56:06;;;;;;;9.70;3.87;;;;;;;3.40;96.63;148519.19;1795856;78;20598;-58
2022/02/11 05:01:18;;;;;;;9.53;3.90;;;;;;;3.38;96.46;148515.30;1788421;78;21815;-59
2022/02/11 05:03:45;;;;;;;9.90;4.10;;;;;;;3.35;96.33;148507.56;1795338;78;20932;-67
2022/02/11 05:06:15;;;;;;;7.60;4.28;;;;;;;3.30;96.21;148494.67;1771100;78;21088;-58
2022/02/11 05:08:44;;;;;;;8.80;4.20;;;;;;;3.25;96.33;148481.77;1788739;78;22301;-58
2022/02/11 05:11:11;;;;;;;8.40;3.98;;;;;;;3.21;96.47;148472.72;1749289;81;21136;-59
2022/02/11 05:13:40;;;;;;;9.10;3.95;;;;;;;3.20;96.71;148468.83;1792413;78;21133;-59
2022/02/11 05:16:07;;;;;;;5.72;3.85;;;;;;;3.22;97.10;148475.31;1799523;78;21553;-61
2022/02/11 05:18:33;;;;;;;6.62;3.80;;;;;;;3.34;97.36;148504.97;1796004;78;21033;-61
2022/02/11 05:21:00;;;;;;;7.85;4.00;;;;;;;3.54;97.43;148554.03;1791666;78;21545;-58
2022/02/11 05:23:27;;;;;;;9.43;4.22;;;;;;;3.90;97.48;148644.41;1800628;78;21020;-59
2022/02/11 05:25:53;;;;;;;10.28;4.33;;;;;;;4.17;96.28;148711.53;1788257;78;21147;-61
2022/02/11 05:28:24;;;;;;;9.20;4.25;;;;;;;4.21;95.01;148721.86;1793853;78;21040;-59
2022/02/11 05:30:51;;;;;;;8.20;4.00;;;;;;;4.11;93.76;148696.06;1791763;78;20999;-60
2022/02/11 05:33:20;;;;;;;7.40;4.17;;;;;;;4.11;93.76;148696.06;1797947;78;21099;-60
2022/02/11 05:35:47;;;;;;;13.72;4.50;;;;;;;4.04;93.80;148677.95;1779981;78;21120;-59
2022/02/11 05:38:14;;;;;;;8.98;4.12;;;;;;;4.04;93.73;148677.95;1797828;79;21596;-59
2022/02/11 05:40:41;;;;;;;13.08;4.92;;;;;;;4.03;93.63;148676.69;1783585;79;21024;-59
2022/02/11 05:43:09;;;;;;;10.65;4.08;;;;;;;4.03;93.37;148676.69;1793813;79;21045;-59
2022/02/11 05:45:36;;;;;;;7.28;3.87;;;;;;;3.98;93.02;148665.05;1769247;79;21442;-63
2022/02/11 05:48:05;;;;;;;11.12;4.35;;;;;;;3.98;93.02;148665.05;1748340;80;21504;-59
2022/02/11 05:50:32;;;;;;;9.80;3.83;;;;;;;3.99;93.11;148667.63;1733024;81;21505;-60
2022/02/11 05:52:58;;;;;;;7.80;4.05;;;;;;;4.00;92.98;148670.20;1744893;80;21531;-60
2022/02/11 05:55:25;;;;;;;8.55;3.83;;;;;;;4.04;92.88;148677.95;1746137;81;21311;-60
2022/02/11 05:57:53;;;;;;;7.78;4.10;;;;;;;4.05;92.89;148680.53;1733707;81;21052;-60
2022/02/11 06:00:20;;;;;;;8.68;4.33;;;;;;;4.08;92.53;148689.58;1744518;81;21543;-59
2022/02/11 06:02:47;;;;;;;12.05;4.55;;;;;;;4.08;92.53;148689.58;1719453;81;21506;-59
2022/02/11 06:05:16;;;;;;;11.70;4.17;;;;;;;4.15;92.59;148706.38;1751495;80;21017;-61
2022/02/11 06:07:45;;;;;;;8.05;4.10;;;;;;;4.26;92.63;148733.50;1749128;81;21024;-67
2022/02/11 06:10:12;;;;;;;6.62;4.12;;;;;;;4.26;92.63;148733.50;1789556;79;21049;-68
2022/02/11 06:12:39;;;;;;;9.15;4.12;;;;;;;4.34;92.40;148752.87;1790705;79;21069;-68
2022/02/11 06:15:08;;;;;;;11.45;4.30;;;;;;;4.41;92.35;148770.94;1780991;79;21534;-69
2022/02/11 06:17:35;;;;;;;14.47;5.55;;;;;;;4.51;92.12;148796.75;1769780;79;20983;-70
2022/02/11 06:20:03;;;;;;;7.70;4.10;;;;;;;4.58;91.63;148814.88;1786218;79;22159;-68
2022/02/11 06:22:29;;;;;;;9.13;3.95;;;;;;;4.63;91.34;148825.19;1790882;79;21564;-69
2022/02/11 06:24:56;;;;;;;13.13;4.72;;;;;;;4.68;91.22;148839.42;1791206;79;21024;-68
2022/02/11 06:27:23;;;;;;;11.85;4.85;;;;;;;4.74;90.97;148853.59;1776746;79;21636;-61
2022/02/11 06:29:50;;;;;;;9.83;4.22;;;;;;;4.81;90.92;148870.41;1780157;79;21103;-63
2022/02/11 06:32:16;;;;;;;10.18;4.62;;;;;;;4.87;90.73;148887.20;1791255;79;21007;-68
2022/02/11 06:34:43;;;;;;;10.10;4.40;;;;;;;4.96;90.47;148907.86;1781187;79;21016;-68
2022/02/11 06:37:09;;;;;;;9.68;4.12;;;;;;;5.02;90.05;148923.41;1787900;78;21106;-69
2022/02/11 06:39:36;;;;;;;9.40;4.85;;;;;;;5.10;89.91;148944.06;1793217;78;21126;-61
2022/02/11 06:42:04;;;;;;;9.03;4.10;;;;;;;5.14;89.81;148954.39;1789060;78;21083;-61
2022/02/11 06:44:31;;;;;;;12.68;4.37;;;;;;;5.24;89.73;148977.69;1763801;79;21127;-61
2022/02/11 06:46:58;;;;;;;8.80;3.77;;;;;;;5.30;89.42;148993.19;1769799;80;21736;-61
2022/02/11 06:49:25;;;;;;;7.53;4.00;;;;;;;5.36;89.21;149008.67;1729909;81;21051;-61
2022/02/11 06:51:53;;;;;;;8.58;4.00;;;;;;;5.37;89.12;149011.25;1770952;79;21094;-61
2022/02/11 06:54:20;;;;;;;11.33;4.33;;;;;;;5.45;89.19;149031.97;1770858;80;22168;-59
2022/02/11 06:56:47;;;;;;;12.13;4.37;;;;;;;5.55;89.20;149055.22;1765199;79;21100;-60
2022/02/11 06:59:13;;;;;;;9.25;4.30;;;;;;;5.64;89.11;149078.52;1767211;79;21061;-68
2022/02/11 07:01:41;;;;;;;10.48;5.05;;;;;;;5.74;88.67;149104.34;1773989;79;21019;-70
2022/02/11 07:04:08;;;;;;;13.20;4.75;;;;;;;5.83;88.29;149125.02;1775995;79;21851;-69
2022/02/11 07:06:36;;;;;;;9.18;4.47;;;;;;;5.89;87.96;149140.58;1769618;80;21024;-68
2022/02/11 07:09:03;;;;;;;12.73;4.80;;;;;;;5.94;87.59;149153.50;1765630;79;21584;-70
2022/02/11 07:11:30;;;;;;;8.78;4.50;;;;;;;6.00;87.30;149169.00;1766111;79;21040;-69
2022/02/11 07:13:57;;;;;;;9.03;4.78;;;;;;;6.06;86.66;149181.97;1768861;79;21155;-70
2022/02/11 07:16:25;;;;;;;12.40;5.17;;;;;;;6.07;86.06;149184.55;1772041;79;21111;-69
2022/02/11 07:18:52;;;;;;;13.70;5.62;;;;;;;6.09;85.72;149191.03;1768642;79;21055;-70
2022/02/11 07:21:33;;;;;;;11.50;4.33;;;;;;;6.15;85.46;149206.55;1759008;80;21054;-69
2022/02/11 07:24:11;;;;;;;15.03;5.42;;;;;;;6.22;85.13;149222.09;1722628;81;21109;-70
2022/02/11 07:26:39;;;;;;;9.40;4.60;;;;;;;6.30;84.75;149244.09;1754089;80;21056;-69
2022/02/11 07:31:35;;;;;;;8.93;5.20;;;;;;;6.44;84.12;149277.69;1761300;79;21041;-69
2022/02/11 07:34:01;;;;;;;10.03;4.75;;;;;;;6.52;83.81;149298.44;1765956;80;21131;-69
2022/02/11 07:36:28;;;;;;;8.88;4.33;;;;;;;6.58;83.18;149312.63;1763881;80;21108;-68
2022/02/11 07:38:55;;;;;;;9.48;4.60;;;;;;;6.61;82.62;149319.11;1751247;81;21017;-69
2022/02/11 07:41:22;;;;;;;14.93;4.67;;;;;;;6.59;82.09;149316.53;1747836;81;21134;-69
2022/02/11 07:43:49;;;;;;;10.55;4.53;;;;;;;6.66;81.95;149332.03;1749167;80;21065;-70
2022/02/11 07:46:15;;;;;;;11.55;4.22;;;;;;;6.71;81.61;149346.28;1757790;81;21064;-71
2022/02/11 07:48:42;;;;;;;10.58;4.60;;;;;;;6.77;81.43;149360.53;1745718;80;21115;-61
2022/02/11 07:51:09;;;;;;;9.85;4.22;;;;;;;6.82;81.26;149373.45;1708565;82;21557;-62
2022/02/11 07:53:37;;;;;;;8.03;4.35;;;;;;;6.87;80.84;149386.37;1748245;80;21906;-61
2022/02/11 07:56:05;;;;;;;7.78;4.35;;;;;;;6.91;80.50;149395.47;1748065;80;20996;-60
2022/02/11 07:58:32;;;;;;;10.55;4.33;;;;;;;6.95;80.40;149404.48;1741670;80;21048;-60
2022/02/11 08:01:00;;;;;;;8.60;4.58;;;;;;;6.99;80.41;149414.88;1776779;78;22136;-59
2022/02/11 08:03:27;;;;;;;8.40;4.50;;;;;;;7.07;80.43;149434.25;1777704;78;21589;-60
2022/02/11 08:05:55;;;;;;;6.75;4.35;;;;;;;7.17;80.35;149460.16;1770589;79;21992;-60
2022/02/11 08:08:27;;;;;;;10.88;4.83;;;;;;;7.26;80.27;149482.17;1751677;80;21553;-69
2022/02/11 08:10:53;;;;;;;8.65;4.97;;;;;;;7.36;80.09;149508.03;1714913;81;21624;-70
2022/02/11 08:13:20;;;;;;;8.93;5.10;;;;;;;7.47;79.58;149533.95;1714094;82;21095;-69
2022/02/11 08:15:50;;;;;;;13.03;5.35;;;;;;;7.53;79.28;149550.80;1785954;78;21503;-69
2022/02/11 08:18:17;;;;;;;11.35;4.70;;;;;;;7.62;78.99;149572.77;1790210;78;21508;-69
2022/02/11 08:20:45;;;;;;;13.15;4.78;;;;;;;7.70;78.55;149593.52;1802350;78;21612;-69
2022/02/11 08:23:24;;;;;;;7.90;4.90;;;;;;;7.77;77.92;149610.36;1780525;78;21115;-69
2022/02/11 08:25:50;;;;;;;15.32;6.28;;;;;;;7.83;77.43;149624.56;1777434;78;21072;-60
2022/02/11 08:28:17;;;;;;;14.43;5.17;;;;;;;7.89;76.91;149641.41;1742429;81;21091;-61
2022/02/11 08:30:44;;;;;;;11.88;5.08;;;;;;;7.95;76.62;149655.67;1746610;80;21206;-60
2022/02/11 08:33:11;;;;;;;17.52;6.17;;;;;;;8.04;76.59;149677.69;1750461;80;21040;-69
2022/02/11 08:35:38;;;;;;;16.60;6.60;;;;;;;8.12;76.46;149697.13;1755548;80;21100;-59
2022/02/11 08:38:05;;;;;;;15.68;6.85;;;;;;;8.21;76.30;149720.42;1758380;80;21436;-61
2022/02/11 08:40:35;;;;;;;17.80;7.00;;;;;;;8.33;76.01;149748.95;1761548;80;21072;-68
2022/02/11 08:43:01;;;;;;;17.92;7.35;;;;;;;8.41;74.92;149769.66;1751766;80;21430;-59
2022/02/11 08:45:31;;;;;;;13.83;6.80;;;;;;;8.43;74.35;149774.84;1756992;79;21229;-60
2022/02/11 08:47:58;;;;;;;17.20;7.30;;;;;;;8.47;74.30;149785.19;1758417;79;21107;-59
2022/02/11 08:50:26;;;;;;;21.25;6.78;;;;;;;8.53;73.91;149800.83;1798677;78;21047;-60
2022/02/11 08:52:53;;;;;;;12.53;6.55;;;;;;;8.59;73.94;149816.36;1791050;78;21071;-69
2022/02/11 08:55:22;;;;;;;13.08;6.22;;;;;;;8.70;73.82;149843.58;1792743;78;21117;-69
2022/02/11 08:57:50;;;;;;;19.02;6.40;;;;;;;8.82;73.65;149873.38;1755039;80;21055;-69
2022/02/11 09:00:18;;;;;;;18.37;7.22;;;;;;;8.93;73.38;149900.59;1792979;78;21215;-70
2022/02/11 09:02:45;;;;;;;14.55;7.12;;;;;;;9.02;73.13;149923.91;1785787;78;21011;-70
2022/02/11 09:05:12;;;;;;;10.15;6.58;;;;;;;9.13;72.65;149951.12;1733887;81;21605;-70
2022/02/11 09:07:38;;;;;;;10.98;6.55;;;;;;;9.20;71.73;149968.00;1792933;78;21218;-69
2022/02/11 09:10:07;;;;;;;13.25;7.95;;;;;;;9.24;70.95;149977.08;1787252;78;21028;-69
2022/02/11 09:12:34;;;;;;;13.13;6.75;;;;;;;9.25;70.38;149979.67;1795686;78;21087;-69
2022/02/11 09:15:02;;;;;;;14.95;7.22;;;;;;;9.26;70.25;149982.27;1754207;80;21072;-71
2022/02/11 09:17:29;;;;;;;12.78;7.35;;;;;;;9.30;70.28;149993.94;1792679;78;21647;-69
2022/02/11 09:20:10;;;;;;;12.25;7.25;;;;;;;9.35;70.14;150005.58;1787961;78;21133;-69
2022/02/11 09:22:49;;;;;;;13.93;7.72;;;;;;;9.40;69.63;150017.27;1788664;79;20944;-67
2022/02/11 09:25:34;;;;;;;17.52;8.50;;;;;;;9.44;69.47;150028.95;1765493;78;21553;-69
2022/02/11 09:32:22;;;;;;;13.45;7.53;;;;;;;9.51;69.13;150044.48;1682111;83;21057;-73
2022/02/11 09:35:36;;;;;;;13.03;7.15;;;;;;;9.56;69.33;150057.45;1649249;85;21555;-64
2022/02/11 09:38:29;;;;;;;15.18;8.13;;;;;;;9.63;69.33;150074.31;1519264;89;21240;-62
2022/02/11 09:41:02;;;;;;;16.65;8.75;;;;;;;9.70;69.29;150093.78;1622347;87;21532;-63
2022/02/11 09:43:34;;;;;;;17.23;8.60;;;;;;;9.77;68.92;150109.33;1617777;86;21576;-62
2022/02/11 09:46:04;;;;;;;15.95;8.33;;;;;;;9.81;68.25;150119.69;1639473;86;21114;-62
2022/02/11 09:48:35;;;;;;;18.30;8.38;;;;;;;9.83;67.98;150124.87;1647822;82;21570;-62
2022/02/11 09:51:02;;;;;;;14.58;7.87;;;;;;;9.87;67.97;150135.28;1732583;81;21146;-63
2022/02/11 09:53:29;;;;;;;18.30;8.50;;;;;;;9.93;67.94;150149.52;1721366;81;21227;-69
2022/02/11 09:56:06;;;;;;;17.92;8.85;;;;;;;9.97;67.89;150161.20;1730805;81;38572;-71
2022/02/11 09:58:35;;;;;;;15.32;8.38;;;;;;;10.00;67.79;150168.98;1722753;81;21511;-64
2022/02/11 10:01:02;;;;;;;14.18;9.03;;;;;;;10.02;67.61;150174.17;1721438;81;21302;-71
2022/02/11 10:03:31;;;;;;;13.50;8.80;;;;;;;10.03;67.43;150176.75;1781305;78;21074;-71
2022/02/11 10:06:03;;;;;;;17.30;9.15;;;;;;;10.07;67.34;150184.59;1786964;78;22254;-63
2022/02/11 10:08:35;;;;;;;18.00;8.20;;;;;;;10.09;67.08;150189.77;1786594;78;21131;-64
2022/02/11 10:11:08;;;;;;;15.72;9.23;;;;;;;10.13;66.98;150200.13;1784522;78;21460;-64
2022/02/11 10:13:58;;;;;;;13.45;8.10;;;;;;;10.16;66.70;150207.91;1790105;78;21998;-73
2022/02/11 10:16:18;;;;;;;14.55;8.68;;;;;;;10.16;66.74;150207.91;1785477;78;21052;-70
2022/02/11 10:18:50;;;;;;;14.28;8.63;;;;;;;10.19;66.49;150215.69;1788643;78;21040;-71
2022/02/11 10:21:23;;;;;;;14.55;8.80;;;;;;;10.19;66.50;150215.69;1749477;78;21489;-71
2022/02/11 10:23:52;;;;;;;13.18;8.23;;;;;;;10.22;66.46;150223.47;1756686;79;21109;-70
2022/02/11 10:26:30;;;;;;;13.00;8.35;;;;;;;10.24;66.47;150228.66;1719103;81;21745;-71
2022/02/11 10:29:01;;;;;;;13.85;8.00;;;;;;;10.28;66.35;150239.08;1720681;81;21593;-71
2022/02/11 10:31:31;;;;;;;12.93;7.97;;;;;;;10.29;66.39;150240.34;1790936;78;21796;-63
2022/02/11 10:34:14;;;;;;;15.23;9.55;;;;;;;10.31;66.54;150245.53;1790318;78;21094;-62
2022/02/11 10:36:52;;;;;;;16.70;8.80;;;;;;;10.35;66.47;150254.63;1794366;78;21140;-63
2022/02/11 10:39:31;;;;;;;12.93;8.00;;;;;;;10.36;66.35;150257.22;1793420;78;21023;-61
2022/02/11 10:50:35;;;;;;;;;;;;;;;;;;;;;
2022/02/11 10:53:03;;;;;;;12.13;8.17;;;;;;;10.43;66.18;150275.42;1571185;82;21037;-69
2022/02/11 10:56:10;;;;;;;;;;;;;;;;;;;;;
2022/02/11 10:58:40;;;;;;;14.68;8.13;;;;;;;10.53;66.06;150300.08;1638505;82;21086;-62
2022/02/11 11:01:07;;;;;;;16.35;8.90;;;;;;;10.55;66.16;150306.58;1731266;81;21735;-72
2022/02/11 11:03:34;;;;;;;15.50;8.40;;;;;;;10.59;66.22;150316.95;1753427;79;21768;-67
2022/02/11 11:06:05;;;;;;;14.13;8.90;;;;;;;10.63;66.30;150326.05;1792845;78;21473;-68
2022/02/11 11:08:38;;;;;;;15.98;8.05;;;;;;;10.67;66.24;150336.42;1793583;78;21021;-69
2022/02/11 11:11:07;;;;;;;13.53;7.95;;;;;;;10.70;66.17;150344.20;1796691;78;21473;-69
2022/02/11 11:13:37;;;;;;;14.35;8.23;;;;;;;10.74;65.92;150353.31;1809827;78;21063;-69
2022/02/11 11:16:10;;;;;;;13.40;8.15;;;;;;;10.80;65.58;150368.87;1793979;78;21079;-69
2022/02/11 11:18:40;;;;;;;15.90;8.73;;;;;;;10.83;64.64;150376.66;1755074;79;21139;-71
2022/02/11 11:21:09;;;;;;;12.10;7.55;;;;;;;10.83;64.18;150376.66;1788011;78;21666;-71
2022/02/11 11:23:37;;;;;;;14.18;8.05;;;;;;;10.84;64.04;150379.23;1787707;78;21693;-71
2022/02/11 11:26:09;;;;;;;19.27;9.25;;;;;;;10.88;63.98;150388.34;1790342;78;21035;-70
2022/02/11 11:28:45;;;;;;;16.52;8.95;;;;;;;10.94;63.91;150402.58;1787704;79;21123;-69
2022/02/11 11:31:27;;;;;;;18.92;9.50;;;;;;;10.95;64.26;150406.50;1788233;78;21071;-70
2022/02/11 11:34:20;;;;;;;17.50;9.40;;;;;;;10.97;64.09;150411.69;1760252;79;21183;-70
2022/02/11 11:36:50;;;;;;;30.35;9.98;;;;;;;10.99;64.47;150415.59;1751352;80;21045;-69
2022/02/11 11:42:14;;;;;;;23.92;11.38;;;;;;;10.97;65.16;150411.69;1754611;80;21103;-69
2022/02/11 11:44:51;;;;;;;18.25;10.15;;;;;;;10.97;65.14;150410.42;1784652;78;21401;-70
2022/02/11 11:47:36;;;;;;;23.92;10.63;;;;;;;10.95;65.26;150406.50;1781039;78;21924;-68
2022/02/11 11:50:06;;;;;;;27.82;9.70;;;;;;;10.93;65.41;150400.00;1787704;78;21048;-70
2022/02/11 11:52:43;;;;;;;27.35;9.18;;;;;;;10.93;65.57;150400.00;1784330;78;21048;-67
2022/02/11 11:55:22;;;;;;;18.75;8.68;;;;;;;10.92;66.12;150397.41;1780343;78;22069;-72
2022/02/11 11:57:51;;;;;;;22.60;10.70;;;;;;;10.92;66.38;150398.72;1780060;78;21510;-70
2022/02/11 12:00:41;;;;;;;22.40;10.82;;;;;;;10.91;66.30;150394.80;1778576;78;21111;-68
2022/02/11 12:03:07;;;;;;;23.67;11.05;;;;;;;10.89;66.30;150392.22;1781882;78;21099;-69
2022/02/11 12:05:53;;;;;;;20.90;10.23;;;;;;;10.89;66.11;150392.22;1777267;78;21015;-69
2022/02/11 12:08:16;;;;;;;20.10;10.48;;;;;;;10.92;66.13;150398.72;1729519;79;21060;-71
2022/02/11 12:10:46;;;;;;;25.45;10.68;;;;;;;10.96;65.35;150409.09;1784629;78;21769;-68
2022/02/11 12:13:16;;;;;;;18.57;11.55;;;;;;;10.97;65.08;150410.42;1778070;78;21065;-69
2022/02/11 12:15:43;;;;;;;19.27;9.75;;;;;;;10.98;65.02;150413.00;1785356;78;21040;-69
2022/02/11 12:18:10;;;;;;;16.40;8.90;;;;;;;10.99;65.31;150415.59;1794243;78;21546;-69
2022/02/11 12:20:38;;;;;;;16.73;8.43;;;;;;;11.00;65.73;150418.20;1777483;78;21060;-69
2022/02/11 12:28:38;;;;;;;11.78;6.85;;;;;;;10.97;65.99;150410.42;1779342;79;21106;-71
2022/02/11 12:31:07;;;;;;;18.87;7.22;;;;;;;10.93;66.49;150400.00;1772522;79;21111;-69
2022/02/11 12:33:34;;;;;;;13.00;6.62;;;;;;;10.88;66.67;150389.63;1775372;79;21103;-70
2022/02/11 12:36:08;;;;;;;12.50;6.55;;;;;;;10.81;66.81;150371.47;1779099;78;21589;-69
2022/02/11 12:38:35;;;;;;;12.93;6.83;;;;;;;10.74;66.80;150353.31;1776947;80;21128;-70
2022/02/11 12:41:02;;;;;;;10.20;6.37;;;;;;;10.65;67.08;150331.23;1745221;82;21037;-70
2022/02/11 12:43:29;;;;;;;16.20;6.92;;;;;;;10.57;67.37;150311.77;1738649;82;21048;-71
2022/02/11 12:45:57;;;;;;;17.77;6.53;;;;;;;10.52;67.70;150297.47;1772800;79;21208;-69
2022/02/11 12:48:31;;;;;;;11.38;6.87;;;;;;;10.42;68.05;150274.16;1783063;80;21530;-69
2022/02/11 12:50:59;;;;;;;19.60;7.22;;;;;;;10.34;68.40;150253.31;1780967;78;21771;-69
2022/02/11 12:53:28;;;;;;;14.30;6.70;;;;;;;10.25;68.68;150231.25;1751876;81;21045;-69
2022/02/11 12:55:55;;;;;;;16.50;7.92;;;;;;;10.17;68.88;150210.50;1748570;81;21104;-68
2022/02/11 12:58:24;;;;;;;20.75;8.28;;;;;;;10.10;69.18;150192.36;1748186;81;21124;-69
2022/02/11 13:00:50;;;;;;;15.30;8.33;;;;;;;10.00;69.43;150168.98;1743946;80;21052;-69
2022/02/11 13:03:19;;;;;;;16.15;7.78;;;;;;;9.93;69.73;150150.84;1770178;78;21266;-67
2022/02/11 13:05:50;;;;;;;19.77;9.40;;;;;;;9.87;70.08;150135.28;1778129;78;21079;-68
2022/02/11 13:08:26;;;;;;;14.25;8.05;;;;;;;9.83;70.54;150124.87;1773079;80;21067;-69
2022/02/11 13:10:58;;;;;;;16.62;6.92;;;;;;;9.82;70.76;150122.28;1772430;80;21068;-71
2022/02/11 13:13:26;;;;;;;13.30;6.80;;;;;;;9.77;71.03;150109.33;1720092;81;21561;-68
2022/02/11 13:15:55;;;;;;;14.85;7.50;;;;;;;9.73;71.27;150101.55;1777096;78;21621;-69
2022/02/11 13:18:24;;;;;;;20.23;7.67;;;;;;;9.70;71.40;150093.78;1742465;81;21131;-71
2022/02/11 13:20:55;;;;;;;15.83;7.37;;;;;;;9.70;71.59;150093.78;1741446;80;21427;-72
2022/02/11 13:23:24;;;;;;;19.07;7.95;;;;;;;9.71;71.69;150095.05;1777732;80;21019;-69
2022/02/11 13:25:53;;;;;;;16.48;8.50;;;;;;;9.71;71.84;150095.05;1769274;78;21107;-69
2022/02/11 13:28:21;;;;;;;15.63;7.87;;;;;;;9.72;71.89;150098.95;1768178;78;21089;-71
2022/02/11 13:31:00;;;;;;;18.98;8.68;;;;;;;9.71;71.96;150096.36;1714729;81;21294;-69
2022/02/11 13:33:32;;;;;;;17.00;8.75;;;;;;;9.70;72.00;150093.78;1771424;78;21501;-72
2022/02/11 13:36:02;;;;;;;21.25;8.83;;;;;;;9.69;72.15;150091.19;1777188;80;21572;-73
2022/02/11 13:38:33;;;;;;;14.10;8.00;;;;;;;9.68;72.32;150087.28;1740142;80;21092;-72
2022/02/11 13:41:09;;;;;;;24.37;9.50;;;;;;;9.67;72.61;150086.00;1743125;81;21507;-70
2022/02/11 13:43:50;;;;;;;22.77;9.53;;;;;;;9.69;72.82;150091.19;1742842;80;21144;-71
2022/02/11 13:46:29;;;;;;;20.17;8.33;;;;;;;9.74;72.96;150102.88;1744578;80;21068;-71
2022/02/11 13:49:07;;;;;;;15.38;8.03;;;;;;;9.83;73.00;150124.87;1712714;81;21100;-70
2022/02/11 13:51:34;;;;;;;21.68;8.80;;;;;;;9.89;72.92;150140.47;1749939;80;21125;-63
2022/02/11 13:54:14;;;;;;;22.25;8.98;;;;;;;9.95;72.97;150156.03;1755962;80;21584;-65
2022/02/11 13:56:47;;;;;;;16.62;8.80;;;;;;;10.00;72.76;150168.98;1724889;81;21485;-63
2022/02/11 13:59:26;;;;;;;24.37;9.05;;;;;;;10.01;72.68;150171.58;1749309;80;21101;-64
2022/02/11 14:02:05;;;;;;;22.62;8.65;;;;;;;10.02;72.67;150174.17;1750817;80;21080;-63
2022/02/11 14:04:33;;;;;;;22.95;8.65;;;;;;;10.03;72.75;150176.75;1755570;80;20960;-69
2022/02/11 14:07:04;;;;;;;19.70;9.30;;;;;;;10.03;72.74;150175.48;1755410;80;21129;-69
2022/02/11 14:09:38;;;;;;;23.05;10.28;;;;;;;10.01;72.85;150171.58;1755466;80;21045;-62
2022/02/11 14:12:23;;;;;;;21.05;9.13;;;;;;;9.98;72.96;150163.80;1751243;81;21091;-69
2022/02/11 14:14:54;;;;;;;24.82;9.50;;;;;;;9.96;73.26;150157.34;1754664;81;21530;-69
2022/02/11 14:17:21;;;;;;;28.10;9.75;;;;;;;9.97;73.30;150159.94;1728583;81;21548;-72
2022/02/11 14:19:48;;;;;;;20.32;9.83;;;;;;;9.96;73.46;150158.61;1748257;81;21610;-70
2022/02/11 14:22:17;;;;;;;22.60;10.18;;;;;;;9.98;73.48;150163.80;1754613;80;20956;-72
2022/02/11 14:24:44;;;;;;;20.10;9.50;;;;;;;9.99;73.54;150166.39;1752673;80;21057;-70
2022/02/11 14:27:12;;;;;;;20.80;10.20;;;;;;;10.01;73.74;150171.58;1755354;80;20993;-69
2022/02/11 14:29:40;;;;;;;25.57;10.18;;;;;;;10.03;73.72;150175.48;1754327;80;21036;-69
2022/02/11 14:32:08;;;;;;;20.15;9.60;;;;;;;10.03;73.87;150176.75;1753499;80;21680;-70
2022/02/11 14:34:35;;;;;;;21.48;9.68;;;;;;;10.04;73.94;150179.34;1742621;80;21579;-71
2022/02/11 14:37:04;;;;;;;17.85;8.98;;;;;;;10.06;73.98;150183.27;1744751;80;21144;-70
2022/02/11 14:39:31;;;;;;;18.42;9.63;;;;;;;10.08;74.01;150187.17;1709985;82;21419;-71
2022/02/11 14:42:01;;;;;;;20.52;9.60;;;;;;;10.09;74.05;150191.03;1721788;82;21606;-71
2022/02/11 14:44:30;;;;;;;20.95;9.80;;;;;;;10.09;74.20;150189.77;1747905;80;21494;-71
2022/02/11 14:46:59;;;;;;;23.02;9.10;;;;;;;10.06;74.22;150181.94;1745880;80;21156;-70
2022/02/11 14:49:27;;;;;;;24.02;8.88;;;;;;;10.02;74.40;150174.17;1784752;78;21397;-71
2022/02/11 14:51:59;;;;;;;15.35;8.85;;;;;;;10.01;74.51;150170.31;1742549;80;21310;-71
2022/02/11 14:54:26;;;;;;;24.15;9.93;;;;;;;9.97;74.69;150161.20;1748078;80;21019;-71
2022/02/11 14:56:55;;;;;;;21.02;9.98;;;;;;;9.94;74.77;150153.44;1713710;81;21559;-71
2022/02/11 14:59:22;;;;;;;23.02;9.78;;;;;;;9.88;74.90;150139.16;1758069;79;21103;-71
2022/02/11 15:01:50;;;;;;;23.55;10.35;;;;;;;9.84;75.12;150128.78;1755673;79;21787;-69
2022/02/11 15:04:17;;;;;;;20.55;9.43;;;;;;;9.75;75.26;150105.45;1742005;81;21141;-70
2022/02/11 15:06:46;;;;;;;15.70;9.25;;;;;;;9.68;75.68;150087.28;1738665;80;21586;-71
2022/02/11 15:09:13;;;;;;;17.60;9.78;;;;;;;9.61;75.88;150070.41;1743651;81;21105;-69
2022/02/11 15:11:39;;;;;;;18.32;9.85;;;;;;;9.51;76.39;150044.48;1732881;81;21056;-70
2022/02/11 15:14:06;;;;;;;20.05;10.28;;;;;;;9.45;76.70;150031.53;1742176;80;21033;-69
2022/02/11 15:16:33;;;;;;;20.15;9.98;;;;;;;9.37;76.98;150010.77;1747962;81;21076;-71
2022/02/11 15:19:02;;;;;;;19.10;9.75;;;;;;;9.33;77.34;150000.41;1744344;81;21037;-70
2022/02/11 15:21:30;;;;;;;18.40;9.83;;;;;;;9.29;77.55;149990.03;1740085;81;21131;-69
2022/02/11 15:23:57;;;;;;;22.05;9.83;;;;;;;9.21;77.96;149969.31;1747382;81;21010;-71
2022/02/11 15:26:24;;;;;;;21.97;9.68;;;;;;;9.08;78.38;149938.19;1742277;80;21540;-69
2022/02/11 15:28:52;;;;;;;17.82;9.70;;;;;;;8.97;78.82;149909.69;1716283;81;21155;-68
2022/02/11 15:31:18;;;;;;;16.82;9.25;;;;;;;8.86;79.31;149883.73;1717884;80;21116;-70
2022/02/11 15:33:45;;;;;;;16.02;9.78;;;;;;;8.77;79.64;149859.11;1744112;81;21295;-70
2022/02/11 15:36:12;;;;;;;20.60;9.70;;;;;;;8.66;80.02;149831.91;1743251;81;21236;-69
2022/02/11 15:38:39;;;;;;;19.25;9.78;;;;;;;8.59;80.40;149816.36;1690830;82;21669;-69
2022/02/11 15:41:08;;;;;;;18.92;10.10;;;;;;;8.51;80.45;149794.33;1746135;80;21187;-69
2022/02/11 15:43:38;;;;;;;21.27;10.40;;;;;;;8.41;80.75;149769.66;1753903;80;21060;-69
2022/02/11 15:46:05;;;;;;;21.27;10.20;;;;;;;8.36;81.07;149757.98;1744191;80;21138;-69
2022/02/11 15:48:35;;;;;;;18.65;10.40;;;;;;;8.27;81.13;149735.97;1752040;80;21612;-70
2022/02/11 15:51:04;;;;;;;19.32;9.63;;;;;;;8.20;81.49;149717.84;1741448;81;21108;-69